createdAt,value
2019-06-08T00:02:04.762Z,99.90
2019-06-08T00:04:33.897Z,99.90
2019-06-08T00:07:02.834Z,99.90
2019-06-08T00:09:31.824Z,99.90
2019-06-08T00:12:00.806Z,99.90
2019-06-08T00:14:29.817Z,99.90
2019-06-08T00:16:58.639Z,99.90
2019-06-08T00:19:27.697Z,99.90
2019-06-08T00:21:56.687Z,99.90
2019-06-08T00:24:25.540Z,99.90
2019-06-08T00:26:54.555Z,99.90
2019-06-08T00:29:24.625Z,99.90
2019-06-08T00:31:53.590Z,99.90
2019-06-08T00:34:22.805Z,99.90
2019-06-08T00:36:51.670Z,99.90
2019-06-08T00:39:20.937Z,99.90
2019-06-08T00:41:49.848Z,99.90
2019-06-08T00:44:19.247Z,99.90
2019-06-08T00:46:48.489Z,99.90
2019-06-08T00:49:18.426Z,99.90
2019-06-08T00:51:47.533Z,99.90
2019-06-08T00:54:17.351Z,99.90
2019-06-08T00:56:46.628Z,99.90
2019-06-08T00:59:15.541Z,99.90
2019-06-08T01:01:44.467Z,99.90
2019-06-08T01:04:13.288Z,99.90
2019-06-08T01:06:42.819Z,99.90
2019-06-08T01:09:11.744Z,99.90
2019-06-08T01:11:40.716Z,99.90
2019-06-08T01:14:09.716Z,99.90
2019-06-08T01:16:38.658Z,99.90
2019-06-08T01:19:07.574Z,99.90
2019-06-08T01:21:36.547Z,99.90
2019-06-08T01:24:05.531Z,99.90
2019-06-08T01:26:34.508Z,99.90
2019-06-08T01:29:03.503Z,99.90
2019-06-08T01:31:32.459Z,99.90
2019-06-08T01:34:01.381Z,99.90
2019-06-08T01:36:31.229Z,99.90
2019-06-08T01:39:00.241Z,99.90
2019-06-08T01:41:29.649Z,99.90
2019-06-08T01:43:59.036Z,99.90
2019-06-08T01:46:28.330Z,99.90
2019-06-08T01:48:57.427Z,99.90
2019-06-08T01:51:26.590Z,99.90
2019-06-08T01:53:55.725Z,99.90
2019-06-08T01:56:24.945Z,99.90
2019-06-08T01:58:53.981Z,99.90
2019-06-08T02:01:23.483Z,99.90
2019-06-08T02:03:52.557Z,99.90
2019-06-08T02:06:21.617Z,99.90
2019-06-08T02:08:50.580Z,99.90
2019-06-08T02:11:19.607Z,99.90
2019-06-08T02:13:48.589Z,99.90
2019-06-08T02:16:17.635Z,99.90
2019-06-08T02:18:50.859Z,99.90
2019-06-08T02:21:17.495Z,99.90
2019-06-08T02:23:46.522Z,99.90
2019-06-08T02:26:15.433Z,99.90
2019-06-08T02:28:44.365Z,99.90
2019-06-08T02:31:13.341Z,99.90
2019-06-08T02:33:42.377Z,99.90
2019-06-08T02:36:11.276Z,99.90
2019-06-08T02:38:40.264Z,99.90
2019-06-08T02:41:09.245Z,99.90
2019-06-08T02:43:40.071Z,99.90
2019-06-08T02:46:09.019Z,99.90
2019-06-08T02:49:01.819Z,99.90
2019-06-08T02:51:08.721Z,99.90
2019-06-08T02:53:38.763Z,99.90
2019-06-08T02:56:08.169Z,99.90
2019-06-08T02:58:40.745Z,99.90
2019-06-08T03:01:10.513Z,99.90
2019-06-08T03:03:40.447Z,99.90
2019-06-08T03:06:11.111Z,99.90
2019-06-08T03:08:43.533Z,99.90
2019-06-08T03:11:10.597Z,99.90
2019-06-08T03:13:42.537Z,99.90
2019-06-08T03:16:11.519Z,99.90
2019-06-08T03:18:42.400Z,99.90
2019-06-08T03:21:11.087Z,99.90
2019-06-08T03:23:41.491Z,99.90
2019-06-08T03:26:10.681Z,99.90
2019-06-08T03:28:41.386Z,99.90
2019-06-08T03:31:10.173Z,99.90
2019-06-08T03:33:49.178Z,99.90
2019-06-08T03:36:09.846Z,99.90
2019-06-08T03:38:40.150Z,99.90
2019-06-08T03:41:09.362Z,99.90
2019-06-08T03:43:40.118Z,99.90
2019-06-08T03:46:08.825Z,99.90
2019-06-08T03:48:39.511Z,99.90
2019-06-08T03:51:08.385Z,99.90
2019-06-08T03:53:37.942Z,99.90
2019-06-08T03:56:07.868Z,99.90
2019-06-08T03:58:38.411Z,99.90
2019-06-08T04:01:07.459Z,99.90
2019-06-08T04:03:37.514Z,99.90
2019-06-08T04:06:06.865Z,99.90
2019-06-08T04:08:37.770Z,99.90
2019-06-08T04:11:06.698Z,99.90
2019-06-08T04:13:35.699Z,99.90
2019-06-08T04:16:04.689Z,99.90
2019-06-08T04:18:33.631Z,99.90
2019-06-08T04:21:02.460Z,99.90
2019-06-08T04:23:31.401Z,99.90
2019-06-08T04:26:00.230Z,99.90
2019-06-08T04:28:29.176Z,99.90
2019-06-08T04:30:58.084Z,99.90
2019-06-08T04:33:26.977Z,99.90
2019-06-08T04:35:55.975Z,99.90
2019-06-08T04:38:24.924Z,99.90
2019-06-08T04:40:53.842Z,99.90
2019-06-08T04:43:22.754Z,99.90
2019-06-08T04:45:51.624Z,99.90
2019-06-08T04:48:20.479Z,99.90
2019-06-08T04:50:49.851Z,99.90
2019-06-08T04:53:19.241Z,99.90
2019-06-08T04:55:49.279Z,99.90
2019-06-08T04:58:18.413Z,99.90
2019-06-08T05:00:48.750Z,99.90
2019-06-08T05:03:18.102Z,99.90
2019-06-08T05:05:47.786Z,99.90
2019-06-08T05:08:17.785Z,99.90
2019-06-08T05:10:47.449Z,99.90
2019-06-08T05:13:17.018Z,99.90
2019-06-08T05:15:47.301Z,99.90
2019-06-08T05:18:16.341Z,99.90
2019-06-08T05:20:47.401Z,99.90
2019-06-08T05:23:15.914Z,99.90
2019-06-08T05:25:45.160Z,99.90
2019-06-08T05:28:14.281Z,99.90
2019-06-08T05:30:43.281Z,99.90
2019-06-08T05:33:12.208Z,99.90
2019-06-08T05:35:41.359Z,99.90
2019-06-08T05:38:10.755Z,99.90
2019-06-08T05:40:39.649Z,99.90
2019-06-08T05:43:08.550Z,99.90
2019-06-08T05:45:37.529Z,99.90
2019-06-08T05:48:06.555Z,99.90
2019-06-08T05:50:35.462Z,99.90
2019-06-08T05:53:04.489Z,99.90
2019-06-08T05:55:33.565Z,99.90
2019-06-08T05:58:02.473Z,99.90
2019-06-08T06:00:31.405Z,99.90
2019-06-08T06:03:00.389Z,99.90
2019-06-08T06:05:29.369Z,99.90
2019-06-08T06:07:58.293Z,99.90
2019-06-08T06:10:27.186Z,99.90
2019-06-08T06:12:56.161Z,99.90
2019-06-08T06:15:25.152Z,99.90
2019-06-08T06:17:54.176Z,99.90
2019-06-08T06:20:23.143Z,99.90
2019-06-08T06:22:52.619Z,99.90
2019-06-08T06:25:21.813Z,99.90
2019-06-08T06:27:51.804Z,99.90
2019-06-08T06:30:21.187Z,99.90
2019-06-08T06:32:50.257Z,99.90
2019-06-08T06:35:19.385Z,99.90
2019-06-08T06:37:50.589Z,99.90
2019-06-08T06:40:19.599Z,99.90
2019-06-08T06:42:48.509Z,99.90
2019-06-08T06:45:18.751Z,99.90
2019-06-08T06:47:48.518Z,99.90
2019-06-08T06:50:18.349Z,99.90
2019-06-08T06:52:48.820Z,99.90
2019-06-08T06:55:18.428Z,99.90
2019-06-08T06:57:47.304Z,99.90
2019-06-08T07:00:18.658Z,99.90
2019-06-08T07:02:47.674Z,99.90
2019-06-08T07:05:17.238Z,99.90
2019-06-08T07:07:46.267Z,99.90
2019-06-08T07:10:15.655Z,99.90
2019-06-08T07:12:44.679Z,99.90
2019-06-08T07:15:17.852Z,99.90
2019-06-08T07:17:47.970Z,99.90
2019-06-08T07:20:19.488Z,99.90
2019-06-08T07:22:48.526Z,99.90
2019-06-08T07:25:17.514Z,99.90
2019-06-08T07:27:46.490Z,99.90
2019-06-08T07:30:16.258Z,99.90
2019-06-08T07:32:45.243Z,99.90
2019-06-08T07:35:15.923Z,99.90
2019-06-08T07:37:44.865Z,99.90
2019-06-08T07:40:14.818Z,99.90
2019-06-08T07:42:43.800Z,99.90
2019-06-08T07:45:16.699Z,99.90
2019-06-08T07:47:49.989Z,99.90
2019-06-08T07:50:16.509Z,99.90
2019-06-08T07:52:45.557Z,99.90
2019-06-08T07:55:16.431Z,99.90
2019-06-08T07:57:45.426Z,99.90
2019-06-08T08:00:14.570Z,99.90
2019-06-08T08:02:46.485Z,99.90
2019-06-08T08:05:16.824Z,99.90
2019-06-08T08:07:48.435Z,99.90
2019-06-08T08:10:17.688Z,99.90
2019-06-08T08:12:46.794Z,99.90
2019-06-08T08:15:19.208Z,99.90
2019-06-08T08:17:52.598Z,99.90
2019-06-08T08:20:22.194Z,99.90
2019-06-08T08:22:55.790Z,99.90
2019-06-08T08:25:21.866Z,99.90
2019-06-08T08:27:51.970Z,99.90
2019-06-08T08:30:22.457Z,99.90
2019-06-08T08:32:52.710Z,99.90
2019-06-08T08:35:22.037Z,99.90
2019-06-08T08:37:55.501Z,99.90
2019-06-08T08:40:21.843Z,99.90
2019-06-08T08:42:52.254Z,99.90
2019-06-08T08:45:21.590Z,99.90
2019-06-08T08:47:51.233Z,99.90
2019-06-08T08:50:21.301Z,99.90
2019-06-08T08:52:52.349Z,99.90
2019-06-08T08:55:21.735Z,99.90
2019-06-08T08:57:52.177Z,99.90
2019-06-08T09:00:21.857Z,99.90
2019-06-08T09:03:10.906Z,99.90
2019-06-08T09:05:21.809Z,99.90
2019-06-08T09:07:53.791Z,99.90
2019-06-08T09:10:22.950Z,99.90
2019-06-08T09:12:52.611Z,99.90
2019-06-08T09:15:22.830Z,99.90
2019-06-08T09:17:53.836Z,99.90
2019-06-08T09:20:23.235Z,99.90
2019-06-08T09:22:59.133Z,99.90
2019-06-08T09:25:22.926Z,99.90
2019-06-08T09:27:53.238Z,99.90
2019-06-08T09:30:22.886Z,99.90
2019-06-08T09:32:52.355Z,99.90
2019-06-08T09:35:21.905Z,99.90
2019-06-08T09:37:53.222Z,99.90
2019-06-08T09:40:21.880Z,99.90
2019-06-08T09:42:53.264Z,99.90
2019-06-08T09:45:21.649Z,99.90
2019-06-08T09:47:50.607Z,99.90
2019-06-08T09:50:19.876Z,99.90
2019-06-08T09:52:48.881Z,99.90
2019-06-08T09:55:18.546Z,99.90
2019-06-08T09:57:49.952Z,99.90
2019-06-08T10:00:22.224Z,99.90
2019-06-08T10:02:50.214Z,99.90
2019-06-08T10:05:39.042Z,99.90
2019-06-08T10:08:43.984Z,99.90
2019-06-08T10:11:28.117Z,99.90
2019-06-08T10:14:02.651Z,99.90
2019-06-08T10:16:32.141Z,99.90
2019-06-08T10:19:03.881Z,99.90
2019-06-08T10:21:31.873Z,99.90
2019-06-08T10:24:02.789Z,99.90
2019-06-08T10:26:31.574Z,99.90
2019-06-08T10:29:03.326Z,99.90
2019-06-08T10:31:38.775Z,99.90
2019-06-08T10:34:03.527Z,99.90
2019-06-08T10:36:32.676Z,99.90
2019-06-08T10:39:05.307Z,99.90
2019-06-08T10:41:32.494Z,99.90
2019-06-08T10:44:01.510Z,99.90
2019-06-08T10:49:18.902Z,99.90
2019-06-08T10:51:48.681Z,99.90
2019-06-08T11:04:28.699Z,99.90
2019-06-08T11:06:27.935Z,99.90
2019-06-08T11:07:22.767Z,99.90
2019-06-08T11:09:58.683Z,99.90
2019-06-08T11:12:28.898Z,99.90
2019-06-08T11:14:59.266Z,99.90
2019-06-08T11:17:28.746Z,99.90
2019-06-08T11:20:00.456Z,99.90
2019-06-08T11:22:28.437Z,99.90
2019-06-08T11:24:58.849Z,99.90
2019-06-08T11:27:28.593Z,99.90
2019-06-08T11:29:59.516Z,99.90
2019-06-08T11:32:28.970Z,99.90
2019-06-08T11:34:57.929Z,99.90
2019-06-08T11:37:26.933Z,99.90
2019-06-08T11:39:57.672Z,99.90
2019-06-08T11:42:28.609Z,99.90
2019-06-08T11:44:58.675Z,99.90
2019-06-08T11:47:30.893Z,99.90
2019-06-08T11:50:00.428Z,99.90
2019-06-08T11:52:32.835Z,99.90
2019-06-08T11:55:03.762Z,99.90
2019-06-08T11:57:34.107Z,99.90
2019-06-08T12:00:11.907Z,99.90
2019-06-08T12:02:35.689Z,99.90
2019-06-08T12:05:06.408Z,99.90
2019-06-08T12:07:38.064Z,99.90
2019-06-08T12:10:09.045Z,99.90
2019-06-08T12:12:38.501Z,99.90
2019-06-08T12:15:10.070Z,99.90
2019-06-08T12:17:38.835Z,99.90
2019-06-08T12:20:08.629Z,99.90
2019-06-08T12:22:40.253Z,99.90
2019-06-08T12:25:10.330Z,99.90
2019-06-08T12:27:40.363Z,99.90
2019-06-08T12:30:17.368Z,99.90
2019-06-08T12:32:40.694Z,99.90
2019-06-08T12:35:12.143Z,99.90
2019-06-08T12:37:41.106Z,99.90
2019-06-08T12:40:13.172Z,99.90
2019-06-08T12:42:40.896Z,99.90
2019-06-08T12:45:11.143Z,99.90
2019-06-08T12:47:40.115Z,99.90
2019-06-08T12:50:13.065Z,99.90
2019-06-08T12:52:43.014Z,99.90
2019-06-08T12:55:14.223Z,99.90
2019-06-08T12:57:41.538Z,99.90
2019-06-08T13:00:11.938Z,99.90
2019-06-08T13:02:41.340Z,99.90
2019-06-08T13:05:13.754Z,99.90
2019-06-08T13:07:41.602Z,99.90
2019-06-08T13:10:10.977Z,99.90
2019-06-08T13:12:40.956Z,99.90
2019-06-08T13:15:11.642Z,99.90
2019-06-08T13:17:40.847Z,99.90
2019-06-08T13:20:15.290Z,99.90
2019-06-08T13:22:44.245Z,99.90
2019-06-08T13:25:25.033Z,99.90
2019-06-08T13:27:44.570Z,99.90
2019-06-08T13:30:18.665Z,99.90
2019-06-08T13:32:48.243Z,99.90
2019-06-08T13:35:22.380Z,99.90
2019-06-08T13:37:51.473Z,99.90
2019-06-08T13:40:23.468Z,99.90
2019-06-08T13:42:51.676Z,99.90
2019-06-08T13:45:23.354Z,99.90
2019-06-08T13:47:51.616Z,99.90
2019-06-08T13:50:22.142Z,99.90
2019-06-08T13:52:51.367Z,99.90
2019-06-08T13:55:36.522Z,99.90
2019-06-08T13:57:50.953Z,99.90
2019-06-08T14:00:24.805Z,99.90
2019-06-08T14:02:54.007Z,99.90
2019-06-08T14:05:30.785Z,99.90
2019-06-08T14:08:00.251Z,99.90
2019-06-08T14:10:34.992Z,99.90
2019-06-08T14:13:04.678Z,99.90
2019-06-08T14:15:33.675Z,99.90
2019-06-08T14:18:03.105Z,99.90
2019-06-08T14:20:34.272Z,99.90
2019-06-08T14:23:03.280Z,99.90
2019-06-08T14:25:46.854Z,99.90
2019-06-08T14:28:03.341Z,99.90
2019-06-08T14:30:33.288Z,99.90
2019-06-08T14:33:02.596Z,99.90
2019-06-08T14:38:00.414Z,99.90
2019-06-08T14:40:32.743Z,99.90
2019-06-08T14:43:00.264Z,99.90
2019-06-08T14:45:30.964Z,99.90
2019-06-08T14:47:59.942Z,99.90
2019-06-08T14:50:30.709Z,99.90
2019-06-08T14:52:59.573Z,99.90
2019-06-08T14:55:32.119Z,99.90
2019-06-08T14:57:59.248Z,99.90
2019-06-08T15:00:29.604Z,99.90
2019-06-08T15:02:59.275Z,99.90
2019-06-08T15:05:31.890Z,99.90
2019-06-08T15:08:00.940Z,99.90
2019-06-08T15:10:31.291Z,99.90
2019-06-08T15:13:00.451Z,99.90
2019-06-08T15:15:32.054Z,99.90
2019-06-08T15:18:00.361Z,99.90
2019-06-08T15:20:30.339Z,99.90
2019-06-08T15:22:59.370Z,99.90
2019-06-08T15:25:31.136Z,99.90
2019-06-08T15:28:01.392Z,99.90
2019-06-08T15:30:31.468Z,99.90
2019-06-08T15:33:00.578Z,99.90
2019-06-08T15:35:29.555Z,99.90
2019-06-08T15:37:58.690Z,99.90
2019-06-08T15:40:27.912Z,99.90
2019-06-08T15:42:58.518Z,99.90
2019-06-08T15:45:30.882Z,99.90
2019-06-08T15:47:58.818Z,99.90
2019-06-08T15:50:28.442Z,99.90
2019-06-08T15:53:00.035Z,99.90
2019-06-08T15:55:31.412Z,99.90
2019-06-08T15:57:59.101Z,99.90
2019-06-08T16:00:31.269Z,99.90
2019-06-08T16:02:59.231Z,99.90
2019-06-08T16:05:29.553Z,99.90
2019-06-08T16:07:59.010Z,99.90
2019-06-08T16:10:28.127Z,99.90
2019-06-08T16:12:57.223Z,99.90
2019-06-08T16:15:26.873Z,99.90
2019-06-08T16:17:55.992Z,99.90
2019-06-08T16:20:25.382Z,99.90
2019-06-08T16:22:56.010Z,99.90
2019-06-08T16:25:25.577Z,99.90
2019-06-08T16:27:55.130Z,99.90
2019-06-08T16:30:24.176Z,99.90
2019-06-08T16:32:53.087Z,99.90
2019-06-08T16:35:22.023Z,99.90
2019-06-08T16:37:50.972Z,99.80
2019-06-08T16:40:19.879Z,99.30
2019-06-08T16:42:48.789Z,99.90
2019-06-08T16:45:18.193Z,99.90
2019-06-08T16:47:52.356Z,99.60
2019-06-08T16:50:24.808Z,99.80
2019-06-08T16:52:52.483Z,99.90
2019-06-08T16:55:21.431Z,99.20
2019-06-08T16:57:50.290Z,98.20
2019-06-08T17:00:38.548Z,97.80
2019-06-08T17:02:49.947Z,98.60
2019-06-08T17:05:18.935Z,99.10
2019-06-08T17:07:47.898Z,99.10
2019-06-08T17:10:16.891Z,99.20
2019-06-08T17:12:45.870Z,98.50
2019-06-08T17:15:15.444Z,99.40
2019-06-08T17:17:44.319Z,98.90
2019-06-08T17:20:14.316Z,98.90
2019-06-08T17:22:43.324Z,98.90
2019-06-08T17:25:12.716Z,98.00
2019-06-08T17:27:41.815Z,98.60
2019-06-08T17:30:10.958Z,97.30
2019-06-08T17:32:40.561Z,97.30
2019-06-08T17:35:10.070Z,97.30
2019-06-08T17:37:40.168Z,96.70
2019-06-08T17:40:09.401Z,96.70
2019-06-08T17:42:39.528Z,97.10
2019-06-08T17:45:08.906Z,96.80
2019-06-08T17:47:38.492Z,97.10
2019-06-08T17:50:08.265Z,97.40
2019-06-08T17:52:37.279Z,98.50
2019-06-08T17:55:06.779Z,98.70
2019-06-08T17:57:44.785Z,98.30
2019-06-08T18:00:07.617Z,98.30
2019-06-08T18:02:39.915Z,98.70
2019-06-08T18:05:07.942Z,99.30
2019-06-08T18:07:39.011Z,99.70
2019-06-08T18:10:07.624Z,99.90
2019-06-08T18:12:39.234Z,99.90
2019-06-08T18:15:08.292Z,99.90
2019-06-08T18:17:40.797Z,99.90
2019-06-08T18:20:10.888Z,99.90
2019-06-08T18:22:42.810Z,99.90
2019-06-08T18:25:10.879Z,99.90
2019-06-08T18:27:42.125Z,99.90
2019-06-08T18:30:12.106Z,99.90
2019-06-08T18:32:42.487Z,99.90
2019-06-08T18:35:12.189Z,99.90
2019-06-08T18:37:42.528Z,99.90
2019-06-08T18:40:13.266Z,99.90
2019-06-08T18:42:43.128Z,99.90
2019-06-08T18:45:13.648Z,99.90
2019-06-08T18:47:43.762Z,99.90
2019-06-08T18:50:13.129Z,99.90
2019-06-08T18:52:44.638Z,99.90
2019-06-08T18:55:13.682Z,99.90
2019-06-08T18:57:42.996Z,99.90
2019-06-08T19:00:13.538Z,99.90
2019-06-08T19:02:44.940Z,99.90
2019-06-08T19:05:13.228Z,99.90
2019-06-08T19:07:43.508Z,99.90
2019-06-08T19:10:18.179Z,99.90
2019-06-08T19:12:48.720Z,99.90
2019-06-08T19:15:20.910Z,99.90
2019-06-08T19:17:54.243Z,99.90
2019-06-08T19:20:20.958Z,99.90
2019-06-08T19:22:54.134Z,99.90
2019-06-08T19:25:20.897Z,99.90
2019-06-08T19:27:53.119Z,99.90
2019-06-08T19:30:24.210Z,99.90
2019-06-08T19:32:52.483Z,99.90
2019-06-08T19:35:21.628Z,99.90
2019-06-08T19:37:53.611Z,99.90
2019-06-08T19:40:21.378Z,99.90
2019-06-08T19:42:57.132Z,99.90
2019-06-08T19:45:20.982Z,99.90
2019-06-08T19:47:50.008Z,99.90
2019-06-08T19:50:19.070Z,99.90
2019-06-08T19:52:53.031Z,99.90
2019-06-08T19:55:19.236Z,99.90
2019-06-08T19:57:50.594Z,99.90
2019-06-08T20:00:19.305Z,99.90
2019-06-08T20:02:53.395Z,99.90
2019-06-08T20:05:19.352Z,99.90
2019-06-08T20:07:49.131Z,99.90
2019-06-08T20:10:18.438Z,99.90
2019-06-08T20:12:48.343Z,99.90
2019-06-08T20:15:18.536Z,99.90
2019-06-08T20:17:48.903Z,99.90
2019-06-08T20:20:18.821Z,99.90
2019-06-08T20:22:50.355Z,99.90
2019-06-08T20:25:18.872Z,99.90
2019-06-08T20:27:49.750Z,99.90
2019-06-08T20:30:20.104Z,99.90
2019-06-08T20:32:51.923Z,99.90
2019-06-08T20:35:20.205Z,99.90
2019-06-08T20:37:50.015Z,99.90
2019-06-08T20:40:19.313Z,99.90
2019-06-08T20:42:51.596Z,99.90
2019-06-08T20:45:19.710Z,99.90
2019-06-08T20:47:51.043Z,99.90
2019-06-08T20:50:19.642Z,99.90
2019-06-08T20:52:49.660Z,99.90
2019-06-08T20:55:19.565Z,99.90
2019-06-08T20:57:49.783Z,99.90
2019-06-08T21:00:19.373Z,99.90
2019-06-08T21:02:50.330Z,99.90
2019-06-08T21:05:19.143Z,99.90
2019-06-08T21:07:50.897Z,99.90
2019-06-08T21:10:19.133Z,99.90
2019-06-08T21:12:49.921Z,99.90
2019-06-08T21:15:18.945Z,99.90
2019-06-08T21:17:50.462Z,99.90
2019-06-08T21:20:18.610Z,99.90
2019-06-08T21:22:51.009Z,99.90
2019-06-08T21:25:18.342Z,99.90
2019-06-08T21:27:48.538Z,99.90
2019-06-08T21:30:23.916Z,99.90
2019-06-08T21:32:52.667Z,99.90
2019-06-08T21:35:19.447Z,99.90
2019-06-08T21:37:52.559Z,99.90
2019-06-08T21:40:19.455Z,99.90
2019-06-08T21:42:50.351Z,99.90
2019-06-08T21:45:19.081Z,99.90
2019-06-08T21:47:49.995Z,99.90
2019-06-08T21:50:18.766Z,99.90
2019-06-08T21:52:50.191Z,99.90
2019-06-08T21:55:18.405Z,99.90
2019-06-08T21:57:49.546Z,99.90
2019-06-08T22:00:35.808Z,99.90
2019-06-08T22:02:49.663Z,99.90
2019-06-08T22:05:18.867Z,99.90
2019-06-08T22:07:48.079Z,99.90
2019-06-08T22:10:17.951Z,99.90
2019-06-08T22:12:48.347Z,99.90
2019-06-08T22:15:18.402Z,99.90
2019-06-08T22:17:47.733Z,99.90
2019-06-08T22:20:18.630Z,99.90
2019-06-08T22:22:47.853Z,99.90
2019-06-08T22:25:17.526Z,99.90
2019-06-08T22:27:46.695Z,99.90
2019-06-08T22:30:32.388Z,99.90
2019-06-08T22:32:47.443Z,99.90
2019-06-08T22:35:16.580Z,99.90
2019-06-08T22:37:47.905Z,99.90
2019-06-08T22:40:17.534Z,99.90
2019-06-08T22:42:48.063Z,99.90
2019-06-08T22:45:17.639Z,99.90
2019-06-08T22:47:47.781Z,99.90
2019-06-08T22:50:18.569Z,99.90
2019-06-08T22:52:47.803Z,99.90
2019-06-08T22:55:18.574Z,99.90
2019-06-08T22:57:47.966Z,99.90
2019-06-08T23:00:20.592Z,99.90
2019-06-08T23:02:48.586Z,99.90
2019-06-08T23:05:18.625Z,99.90
2019-06-08T23:07:48.917Z,99.90
2019-06-08T23:10:18.090Z,99.90
2019-06-08T23:12:47.325Z,99.90
2019-06-08T23:15:18.346Z,99.90
2019-06-08T23:17:47.976Z,99.90
2019-06-08T23:20:18.587Z,99.90
2019-06-08T23:22:47.830Z,99.90
2019-06-08T23:25:18.350Z,99.90
2019-06-08T23:27:48.384Z,99.90
2019-06-08T23:30:18.593Z,99.90
2019-06-08T23:32:48.088Z,99.90
2019-06-08T23:35:18.208Z,99.90
2019-06-08T23:37:47.924Z,99.90
2019-06-08T23:40:18.010Z,99.90
2019-06-08T23:42:47.619Z,99.90
2019-06-08T23:45:17.683Z,99.90
2019-06-08T23:47:48.084Z,99.90
2019-06-08T23:50:17.894Z,99.90
2019-06-08T23:52:47.704Z,99.90
2019-06-08T23:55:18.182Z,99.90
2019-06-08T23:57:47.452Z,99.90
